Time;durP1;ratioP1;P1;durP2;ratioP2;P2;SDS_P1;SDS_P2;PMS_P1;PMS_P2;Temp;Humidity;BMP_temperature;BMP_pressure;BME280_temperature;BME280_humidity;BME280_pressure;Samples;Min_cycle;Max_cycle;Signal;HPM_P1;HPM_P2
2020/12/31 00:00:15;;;;;;;0.60;0.50;;;4.50;99.90;;;5.42;100.00;110813.56;5071615;28;20480;-66
2020/12/31 00:02:42;;;;;;;0.60;0.60;;;4.50;99.90;;;5.22;100.00;113421.81;5063473;28;20494;-66
2020/12/31 00:05:09;;;;;;;0.70;0.50;;;4.40;99.90;;;5.17;100.00;116720.56;5066215;28;20865;-66
2020/12/31 00:07:36;;;;;;;0.60;0.50;;;4.40;99.90;;;5.16;100.00;120361.56;5056261;28;20186;-66
2020/12/31 00:10:03;;;;;;;0.70;0.60;;;4.30;99.90;;;5.11;100.00;121676.66;5069654;28;20497;-66
2020/12/31 00:12:32;;;;;;;0.70;0.60;;;4.30;99.90;;;5.03;100.00;122985.63;5060830;28;20438;-65
2020/12/31 00:14:59;;;;;;;0.70;0.60;;;4.20;99.90;;;5.01;100.00;123645.53;5061398;28;20478;-65
2020/12/31 00:17:26;;;;;;;0.70;0.60;;;4.20;99.90;;;4.95;100.00;124627.44;5068271;28;20260;-65
2020/12/31 00:19:53;;;;;;;0.70;0.70;;;4.20;99.90;;;4.99;100.00;126293.72;5052999;28;20476;-65
2020/12/31 00:22:20;;;;;;;0.60;0.60;;;4.10;99.90;;;4.89;100.00;126603.59;5059312;28;20435;-65
2020/12/31 00:24:49;;;;;;;0.60;0.60;;;4.10;99.90;;;4.88;100.00;127596.91;5062732;28;20792;-65
2020/12/31 00:27:18;;;;;;;0.70;0.50;;;4.00;99.90;;;4.75;100.00;127569.22;5067235;28;20192;-65
2020/12/31 00:29:47;;;;;;;0.60;0.60;;;4.00;99.90;;;4.83;100.00;126591.53;5068182;28;20444;-67
2020/12/31 00:32:15;;;;;;;0.70;0.60;;;4.00;99.90;;;4.85;100.00;125270.13;5066291;28;20209;-65
2020/12/31 00:34:43;;;;;;;0.70;0.60;;;4.00;99.90;;;4.77;100.00;124258.06;5056741;28;20275;-65
2020/12/31 00:37:11;;;;;;;0.60;0.50;;;4.00;99.90;;;4.87;100.00;122951.50;5058033;28;20194;-65
2020/12/31 00:39:39;;;;;;;0.70;0.60;;;4.00;99.90;;;4.77;100.00;120281.13;5073022;28;20188;-65
2020/12/31 00:42:07;;;;;;;0.60;0.60;;;4.10;99.90;;;4.92;100.00;118324.69;5071152;28;20661;-65
2020/12/31 00:44:36;;;;;;;0.65;0.60;;;4.10;99.90;;;4.87;100.00;115998.16;5064159;28;20228;-65
2020/12/31 00:47:05;;;;;;;0.70;0.60;;;4.10;99.90;;;4.88;100.00;115669.41;5068262;28;20195;-65
2020/12/31 00:49:32;;;;;;;0.70;0.60;;;4.10;99.90;;;4.87;100.00;113022.38;5074918;28;20613;-65
2020/12/31 00:51:59;;;;;;;0.60;0.60;;;4.10;99.90;;;4.96;100.00;110726.91;5055410;28;20237;-64
2020/12/31 00:54:26;;;;;;;0.60;0.60;;;4.20;99.90;;;5.02;100.00;108096.53;5056675;28;20455;-64
2020/12/31 00:56:53;;;;;;;0.70;0.60;;;4.30;99.90;;;5.13;100.00;106466.66;5070023;28;20494;-64
2020/12/31 00:59:21;;;;;;;0.60;0.50;;;4.30;99.90;;;4.93;100.00;104121.00;5066814;28;20201;-65
2020/12/31 01:01:48;;;;;;;0.60;0.60;;;4.30;99.90;;;5.04;100.00;102492.53;5072760;28;20496;-65
2020/12/31 01:04:16;;;;;;;0.70;0.60;;;4.30;99.90;;;5.04;100.00;101503.84;5069202;28;20212;-65
2020/12/31 01:06:43;;;;;;;0.60;0.60;;;4.30;99.90;;;4.97;100.00;100504.13;5047979;28;20518;-65
2020/12/31 01:09:10;;;;;;;0.70;0.60;;;4.20;99.90;;;4.92;100.00;100165.16;5074454;28;20661;-65
2020/12/31 01:11:38;;;;;;;0.60;0.60;;;4.20;99.90;;;4.98;100.00;99517.00;5073642;28;20200;-65
2020/12/31 01:14:07;;;;;;;0.70;0.60;;;4.20;99.90;;;4.80;100.00;97841.94;5070915;28;20582;-65
2020/12/31 01:16:35;;;;;;;1.50;1.08;;;4.10;99.90;;;4.80;100.00;97841.94;5064473;28;20184;-64
2020/12/31 01:19:02;;;;;;;0.70;0.60;;;4.10;99.90;;;4.75;100.00;97833.44;5074836;28;20208;-65
2020/12/31 01:21:30;;;;;;;0.60;0.50;;;4.00;99.90;;;4.77;100.00;97178.84;5074418;28;20439;-65
2020/12/31 01:23:58;;;;;;;0.60;0.60;;;4.10;99.90;;;4.84;100.00;96861.72;5069478;28;20221;-64
2020/12/31 01:26:33;;;;;;;0.60;0.50;;;4.10;99.90;;;4.74;100.00;95528.63;5064652;28;20195;-64
2020/12/31 01:29:02;;;;;;;0.60;0.50;;;4.10;99.90;;;4.78;100.00;95535.28;5050541;28;20250;-65
2020/12/31 01:31:29;;;;;;;0.70;0.60;;;4.10;99.90;;;4.83;100.00;94886.84;5059695;28;20213;-65
2020/12/31 01:33:56;;;;;;;0.60;0.60;;;4.10;99.90;;;4.96;100.00;93262.91;5057634;28;20208;-64
2020/12/31 01:36:24;;;;;;;0.70;0.60;;;4.10;99.90;;;4.94;100.00;91945.22;5068758;28;20205;-65
2020/12/31 01:38:52;;;;;;;0.70;0.60;;;4.10;99.90;;;5.00;100.00;90970.00;5065127;28;20203;-65
2020/12/31 01:41:24;;;;;;;0.70;0.60;;;4.20;99.90;;;4.94;100.00;90959.72;5072304;28;20185;-65
2020/12/31 01:44:03;;;;;;;0.60;0.60;;;4.10;99.90;;;4.85;100.00;90946.97;5057980;28;20378;-65
2020/12/31 01:46:33;;;;;;;0.60;0.50;;;4.10;99.90;;;4.91;100.00;90954.94;5065513;28;20465;-65
2020/12/31 01:49:01;;;;;;;0.60;0.50;;;4.10;99.90;;;4.89;100.00;90623.34;5074897;28;20470;-65
2020/12/31 01:51:29;;;;;;;0.60;0.60;;;4.10;99.90;;;4.97;100.00;90307.56;5070949;28;20584;-65
2020/12/31 01:53:58;;;;;;;0.60;0.50;;;4.20;99.90;;;4.98;100.00;89980.78;5061068;28;20488;-64
2020/12/31 01:56:30;;;;;;;0.60;0.60;;;4.20;99.90;;;4.97;100.00;90307.56;5063095;28;20530;-65
2020/12/31 01:58:58;;;;;;;0.63;0.60;;;4.20;99.90;;;5.01;100.00;89985.50;5067342;28;20797;-65
2020/12/31 02:01:26;;;;;;;0.60;0.60;;;4.20;99.90;;;4.98;100.00;90638.38;5059357;28;20201;-66
2020/12/31 02:03:55;;;;;;;0.60;0.60;;;4.20;99.90;;;5.01;100.00;91956.47;5066442;28;20275;-64
2020/12/31 02:06:24;;;;;;;0.60;0.60;;;4.20;99.90;;;5.16;100.00;90666.09;5073509;28;20496;-65
2020/12/31 02:08:52;;;;;;;0.60;0.60;;;4.30;99.90;;;5.12;100.00;89016.72;5064497;28;20182;-64
2020/12/31 02:11:22;;;;;;;0.93;0.87;;;4.40;99.90;;;5.26;100.00;87397.44;5067339;28;20462;-65
2020/12/31 02:13:50;;;;;;;0.60;0.50;;;4.40;99.90;;;5.29;100.00;86416.50;5058049;28;20439;-64
2020/12/31 02:16:19;;;;;;;0.60;0.60;;;4.50;99.90;;;5.29;100.00;85760.91;5069036;28;20205;-64
2020/12/31 02:18:52;;;;;;;0.60;0.50;;;4.50;99.90;;;5.26;100.00;86411.97;5063212;28;20263;-65
2020/12/31 02:21:23;;;;;;;0.60;0.50;;;4.40;99.90;;;5.21;100.00;85420.06;5059752;28;20186;-64
2020/12/31 02:23:52;;;;;;;0.68;0.60;;;4.40;99.90;;;5.17;100.00;84102.88;5056733;28;20182;-65
2020/12/31 02:26:21;;;;;;;0.70;0.60;;;4.50;99.90;;;5.13;100.00;84424.19;5067237;28;20189;-63
2020/12/31 02:28:48;;;;;;;1.52;1.20;;;4.40;99.90;;;4.92;100.00;85377.50;5065126;28;20200;-63
2020/12/31 02:31:15;;;;;;;0.60;0.60;;;4.40;99.90;;;4.82;100.00;88644.25;5059245;28;21296;-64
2020/12/31 02:33:46;;;;;;;0.60;0.50;;;4.30;99.90;;;4.88;100.00;91278.59;5070718;28;20824;-64
2020/12/31 02:36:15;;;;;;;0.60;0.60;;;4.20;99.90;;;4.92;100.00;91613.47;5063931;28;20182;-65
2020/12/31 02:38:42;;;;;;;0.60;0.60;;;4.20;99.90;;;4.83;100.00;92913.97;5064021;28;20186;-65
2020/12/31 02:41:11;;;;;;;0.70;0.60;;;4.20;99.90;;;4.83;100.00;94886.84;5055322;28;20193;-65
2020/12/31 02:43:42;;;;;;;0.70;0.60;;;4.10;99.90;;;4.73;100.00;95526.97;5056117;28;20195;-64
2020/12/31 02:46:13;;;;;;;0.60;0.50;;;4.10;99.90;;;4.77;100.00;95534.44;5072207;28;20665;-64
2020/12/31 02:48:42;;;;;;;0.60;0.60;;;4.10;99.90;;;4.74;100.00;95529.44;5073504;28;20208;-63
2020/12/31 02:51:10;;;;;;;1.00;0.90;;;4.10;99.90;;;4.79;100.00;95865.78;5068679;28;20691;-65
2020/12/31 02:53:38;;;;;;;0.60;0.60;;;4.10;99.90;;;4.80;100.00;95868.28;5053196;28;20193;-64
2020/12/31 02:56:11;;;;;;;0.60;0.60;;;4.10;99.90;;;4.82;100.00;95871.66;5069559;28;20186;-63
2020/12/31 02:58:40;;;;;;;0.60;0.50;;;4.10;99.90;;;4.70;100.00;94864.50;5063402;28;20649;-63
2020/12/31 03:01:09;;;;;;;0.65;0.60;;;4.10;99.90;;;4.66;100.00;95844.88;5052031;28;20538;-63
2020/12/31 03:03:38;;;;;;;0.60;0.50;;;4.00;99.90;;;4.63;100.00;95839.84;5055281;28;20730;-64
2020/12/31 03:06:07;;;;;;;0.70;0.70;;;3.90;99.90;;;4.64;100.00;95511.94;5069354;28;20277;-63
2020/12/31 03:08:35;;;;;;;0.60;0.50;;;4.00;99.90;;;4.66;100.00;95516.13;5061497;28;20637;-64
2020/12/31 03:11:05;;;;;;;0.60;0.60;;;4.00;99.90;;;4.71;100.00;94866.97;5071996;28;20469;-63
2020/12/31 03:13:33;;;;;;;0.60;0.50;;;4.00;99.90;;;4.68;100.00;94861.22;5060429;28;20926;-64
2020/12/31 03:16:00;;;;;;;0.65;0.60;;;3.90;99.90;;;4.58;100.00;94846.31;5057773;28;20188;-64
2020/12/31 03:18:27;;;;;;;0.60;0.52;;;3.90;99.90;;;4.58;100.00;94845.47;5066599;28;20571;-63
2020/12/31 03:20:54;;;;;;;0.60;0.60;;;3.90;99.90;;;4.65;100.00;94528.41;5055588;28;20534;-64
2020/12/31 03:23:21;;;;;;;0.60;0.60;;;4.00;99.90;;;4.72;100.00;93882.66;5068754;28;20672;-64
2020/12/31 03:25:48;;;;;;;0.60;0.50;;;3.90;99.90;;;4.63;100.00;92553.88;5039137;28;20194;-62
2020/12/31 03:28:15;;;;;;;0.60;0.50;;;3.90;99.90;;;4.64;100.00;91897.84;5067559;28;20193;-65
2020/12/31 03:30:45;;;;;;;0.73;0.73;;;3.90;99.90;;;4.65;100.00;91242.75;5062937;28;20204;-65
2020/12/31 03:33:13;;;;;;;0.60;0.50;;;3.90;99.90;;;4.59;100.00;90249.22;5059617;28;20220;-65
2020/12/31 03:35:43;;;;;;;0.70;0.70;;;3.90;99.90;;;4.56;100.00;88604.72;5069612;28;20671;-65
2020/12/31 03:38:10;;;;;;;0.60;0.50;;;3.90;99.90;;;4.55;100.00;87619.25;5058255;28;20188;-63
2020/12/31 03:40:38;;;;;;;0.60;0.60;;;3.90;99.90;;;4.49;100.00;85970.19;5071546;28;20467;-62
2020/12/31 03:43:07;;;;;;;0.70;0.70;;;3.80;99.90;;;4.47;100.00;84656.50;5060363;28;20211;-63
2020/12/31 03:45:34;;;;;;;0.60;0.50;;;3.80;99.90;;;4.53;100.00;83683.38;5069406;28;20184;-63
2020/12/31 03:48:04;;;;;;;0.60;0.60;;;3.80;99.90;;;4.55;100.00;81720.75;5039535;28;20476;-63
2020/12/31 03:50:32;;;;;;;0.60;0.50;;;3.80;99.90;;;4.50;100.00;79423.66;5066613;28;20201;-63
2020/12/31 03:52:59;;;;;;;0.60;0.60;;;3.80;99.90;;;4.58;100.00;78125.69;5065157;28;20531;-63
2020/12/31 03:55:26;;;;;;;0.60;0.50;;;3.90;99.90;;;4.45;100.00;75819.81;5071747;28;20582;-63
2020/12/31 03:57:53;;;;;;;0.60;0.50;;;3.80;99.90;;;4.46;100.00;74188.38;5055999;28;20199;-63
2020/12/31 04:00:20;;;;;;;0.60;0.50;;;3.80;99.90;;;4.55;100.00;72240.09;5066659;28;20182;-64
2020/12/31 04:02:47;;;;;;;0.60;0.50;;;3.90;99.90;;;4.39;100.00;69936.47;5061707;28;20189;-64
2020/12/31 04:05:15;;;;;;;0.60;0.50;;;3.80;99.90;;;4.36;100.00;67976.44;5074988;28;20194;-63
2020/12/31 04:07:42;;;;;;;0.60;0.50;;;3.80;99.90;;;4.20;100.00;65677.47;5068587;28;20575;-63
2020/12/31 04:10:09;;;;;;;0.70;0.60;;;3.70;99.90;;;4.36;100.00;64067.72;5065054;28;20195;-63
2020/12/31 04:12:36;;;;;;;0.60;0.50;;;3.80;99.90;;;4.29;100.00;61781.13;5061268;28;20201;-64
2020/12/31 04:15:05;;;;;;;0.60;0.50;;;3.80;99.90;;;4.29;100.00;60154.84;5060286;28;20198;-63
2020/12/31 04:17:32;;;;;;;0.60;0.50;;;3.70;99.90;;;4.28;100.00;58203.84;5062270;28;20189;-64
2020/12/31 04:19:59;;;;;;;0.60;0.60;;;3.70;99.90;;;4.17;100.00;56243.44;5056803;28;20209;-63
2020/12/31 04:22:28;;;;;;;0.60;0.50;;;3.70;99.90;;;4.24;100.00;54302.34;5059919;28;20443;-64
2020/12/31 04:24:55;;;;;;;0.60;0.50;;;3.70;99.90;;;4.25;100.00;52031.91;5061638;28;20797;-64
2020/12/31 04:27:22;;;;;;;0.60;0.50;;;3.70;99.90;;;4.30;100.00;50090.66;5066197;28;20254;-63
2020/12/31 04:29:49;;;;;;;0.60;0.60;;;3.70;99.90;;;4.35;100.00;48149.81;5071524;28;20197;-63
2020/12/31 04:32:16;;;;;;;0.60;0.50;;;3.70;99.90;;;4.29;100.00;45553.41;5057539;28;20291;-64
2020/12/31 04:34:44;;;;;;;0.60;0.57;;;3.70;99.90;;;4.26;100.00;42962.22;5061778;28;20221;-63
2020/12/31 04:37:11;;;;;;;0.63;0.60;;;3.70;99.90;;;4.31;100.00;40702.09;5053411;28;20196;-64
2020/12/31 04:39:39;;;;;;;0.60;0.50;;;3.70;99.90;;;4.38;100.00;38443.81;5061769;28;20447;-63
2020/12/31 04:42:07;;;;;;;0.60;0.50;;;3.70;99.90;;;4.40;100.00;36830.22;5056932;28;20815;-63
2020/12/31 04:44:35;;;;;;;0.60;0.50;;;3.70;99.90;;;4.36;100.00;34890.53;5070843;28;20439;-63
2020/12/31 04:47:04;;;;;;;0.60;0.52;;;3.70;99.90;;;4.38;100.00;32544.16;5063914;28;20197;-64
2020/12/31 04:49:43;;;;;;;0.60;0.57;;;3.70;99.90;;;4.46;100.00;31180.72;5068000;28;20216;-64
2020/12/31 04:52:11;;;;;;;0.60;0.50;;;3.80;99.90;;;4.41;100.00;29092.84;5052853;28;20451;-64
2020/12/31 04:54:39;;;;;;;0.60;0.60;;;3.80;99.90;;;4.45;100.00;28488.31;5054443;28;20486;-63
2020/12/31 04:57:07;;;;;;;0.60;0.60;;;3.80;99.90;;;4.43;100.00;27913.34;5060491;28;20198;-64
2020/12/31 04:59:35;;;;;;;0.60;0.50;;;3.80;99.90;;;4.35;100.00;26935.66;5068708;28;20704;-66
2020/12/31 05:02:05;;;;;;;0.60;0.60;;;3.70;99.90;;;4.47;100.00;25683.41;5056271;28;20185;-63
2020/12/31 05:04:32;;;;;;;0.60;0.60;;;3.70;99.90;;;4.39;100.00;24266.38;5064478;28;20202;-64
2020/12/31 05:06:59;;;;;;;0.60;0.50;;;3.70;99.90;;;4.39;100.00;22992.09;5053464;28;20244;-65
2020/12/31 05:09:26;;;;;;;0.60;0.50;;;3.70;99.90;;;4.30;100.00;20517.06;5067989;28;20270;-65
2020/12/31 05:11:54;;;;;;;0.60;0.60;;;3.70;99.90;;;4.45;100.00;19910.03;5054130;28;20559;-64
2020/12/31 05:14:33;;;;;;;0.60;0.50;;;3.80;99.90;;;4.48;100.00;18121.41;5066118;28;20201;-64
2020/12/31 05:17:14;;;;;;;0.60;0.50;;;3.80;99.90;;;4.40;100.00;17014.59;5062921;28;20200;-68
2020/12/31 05:19:45;;;;;;;0.60;0.50;;;3.80;99.90;;;4.29;100.00;15797.31;5054067;28;20292;-65
2020/12/31 05:22:14;;;;;;;0.60;0.50;;;3.80;99.90;;;4.36;100.00;14994.97;5060433;28;20574;-65
2020/12/31 05:24:44;;;;;;;0.60;0.50;;;3.80;99.90;;;4.38;100.00;14616.78;5075628;28;20212;-67
2020/12/31 05:27:19;;;;;;;0.60;0.60;;;3.80;99.90;;;4.47;100.00;14013.06;5062238;28;20723;-64
2020/12/31 05:30:01;;;;;;;0.60;0.50;;;3.80;99.90;;;4.38;100.00;12722.38;5071670;28;20271;-66
2020/12/31 05:32:30;;;;;;;0.60;0.50;;;3.80;99.90;;;4.49;100.00;12795.56;5061404;28;20305;-65
2020/12/31 05:34:58;;;;;;;0.68;0.65;;;3.80;99.90;;;4.46;100.00;11740.09;5067402;28;20213;-64
2020/12/31 05:37:27;;;;;;;0.60;0.50;;;3.80;99.90;;;4.50;100.00;11092.44;5073825;28;20411;-64
2020/12/31 05:40:05;;;;;;;0.60;0.50;;;3.80;99.90;;;4.54;100.00;10567.66;5057256;28;20188;-64
2020/12/31 05:42:35;;;;;;;0.60;0.50;;;3.80;99.90;;;4.51;100.00;9260.00;5062111;28;20543;-64
2020/12/31 05:45:12;;;;;;;0.60;0.60;;;3.80;99.90;;;4.44;100.00;8793.09;5063323;28;20197;-64
2020/12/31 05:47:48;;;;;;;0.60;0.50;;;3.80;99.90;;;4.48;100.00;8288.38;5071724;28;20264;-65
2020/12/31 05:50:23;;;;;;;0.60;0.50;;;3.80;99.90;;;4.46;100.00;7737.56;5055137;28;20586;-64
2020/12/31 05:52:51;;;;;;;0.70;0.60;;;3.80;99.90;;;4.42;100.00;6896.38;5054338;28;20292;-64
2020/12/31 05:55:19;;;;;;;0.60;0.60;;;3.70;99.90;;;4.42;100.00;6576.31;5069415;28;20443;-64
2020/12/31 05:57:52;;;;;;;0.60;0.50;;;3.70;99.90;;;4.31;100.00;5629.63;5071544;28;20193;-64
2020/12/31 06:00:21;;;;;;;0.60;0.50;;;3.70;99.90;;;4.35;100.00;5267.84;5056619;28;20594;-63
2020/12/31 06:02:51;;;;;;;0.60;0.60;;;3.60;99.90;;;4.29;100.00;3995.06;5065365;28;20641;-63
2020/12/31 06:05:19;;;;;;;0.60;0.60;;;3.70;99.90;;;4.45;100.00;3984.66;5060498;28;20186;-63
2020/12/31 06:07:49;;;;;;;0.60;0.60;;;3.70;99.90;;;4.33;100.00;2806.63;5057116;28;20280;-65
2020/12/31 06:10:26;;;;;;;0.60;0.50;;;3.70;99.90;;;4.26;100.00;1527.63;5073686;28;20260;-63
2020/12/31 06:12:56;;;;;;;0.60;0.50;;;3.60;99.90;;;4.26;100.00;1342.88;5063809;28;20201;-63
2020/12/31 06:15:29;;;;;;;0.60;0.60;;;3.60;99.90;;;4.19;100.00;294.25;5069989;28;20272;-64
2020/12/31 06:17:57;;;;;;;0.60;0.50;;;3.60;99.90;;;4.19;100.00;-114.88;5059694;28;20558;-64
2020/12/31 06:20:27;;;;;;;0.60;0.50;;;3.60;99.90;;;4.13;100.00;-783.66;5074329;28;20195;-64
2020/12/31 06:23:04;;;;;;;0.60;0.50;;;3.60;99.90;;;4.14;100.00;-2591.16;5070747;28;20230;-63
2020/12/31 06:25:48;;;;;;;0.60;0.50;;;3.50;99.90;;;4.06;100.00;-3393.72;5058658;28;20185;-63
2020/12/31 06:28:19;;;;;;;0.60;0.50;;;3.50;99.90;;;4.04;100.00;-4014.06;5060706;28;20711;-65
2020/12/31 06:30:48;;;;;;;0.60;0.60;;;3.40;99.90;;;3.92;100.00;-5114.66;5064035;28;20182;-63
2020/12/31 06:33:23;;;;;;;0.60;0.55;;;3.40;99.90;;;3.96;100.00;-6162.81;5068780;28;20240;-64
2020/12/31 06:35:55;;;;;;;1.25;1.15;;;3.30;99.90;;;3.76;100.00;-7791.50;5069950;28;20223;-64
2020/12/31 06:38:31;;;;;;;0.60;0.60;;;3.30;99.90;;;3.88;100.00;-8304.63;5068151;28;20177;-64
2020/12/31 06:40:58;;;;;;;0.60;0.50;;;3.20;99.90;;;3.72;100.00;-9307.88;5063792;28;20235;-64
2020/12/31 06:43:37;;;;;;;0.60;0.55;;;3.20;99.90;;;3.70;100.00;-10349.00;5068613;28;20228;-64
2020/12/31 06:46:18;;;;;;;0.60;0.60;;;3.10;99.90;;;3.84;100.00;-10944.38;5068585;28;20189;-64
2020/12/31 06:48:51;;;;;;;0.60;0.50;;;3.20;99.90;;;3.80;100.00;-11818.44;5064611;28;20213;-64
2020/12/31 06:51:24;;;;;;;0.60;0.50;;;3.10;99.90;;;3.85;100.00;-12470.00;5053228;28;20288;-64
2020/12/31 06:53:52;;;;;;;0.60;0.60;;;3.10;99.90;;;3.83;100.00;-12859.63;5070428;28;20227;-63
2020/12/31 06:56:45;;;;;;;0.60;0.50;;;3.10;99.90;;;3.77;100.00;-13529.13;5060283;28;20192;-64
2020/12/31 06:59:27;;;;;;;0.60;0.50;;;3.10;99.90;;;3.69;100.00;-14138.47;5060573;28;20225;-63
2020/12/31 07:01:55;;;;;;;0.60;0.60;;;3.10;99.90;;;3.67;100.00;-14765.97;5070299;28;20638;-65
2020/12/31 07:04:30;;;;;;;0.60;0.50;;;3.10;99.90;;;3.76;100.00;-15298.63;5058785;28;20209;-66
2020/12/31 07:06:58;;;;;;;0.60;0.50;;;3.10;99.90;;;3.69;100.00;-16073.66;5065210;28;20208;-65
2020/12/31 07:09:34;;;;;;;0.60;0.50;;;3.10;99.90;;;3.54;100.00;-17074.91;5062652;28;20593;-65
2020/12/31 07:12:04;;;;;;;0.60;0.60;;;3.10;99.90;;;3.58;100.00;-17613.84;5062280;28;20276;-65
2020/12/31 07:14:35;;;;;;;0.60;0.50;;;3.10;99.90;;;3.78;100.00;-17923.25;5061537;28;20264;-63
2020/12/31 07:17:05;;;;;;;0.60;0.52;;;3.10;99.90;;;3.60;100.00;-18615.50;5058524;28;20193;-64
2020/12/31 07:19:38;;;;;;;0.60;0.50;;;3.10;99.90;;;3.66;100.00;-18884.59;5057425;28;20262;-67
2020/12/31 07:22:23;;;;;;;0.60;0.50;;;3.10;99.90;;;3.55;100.00;-19568.13;5056570;28;20208;-65
2020/12/31 07:24:56;;;;;;;0.60;0.50;;;3.00;99.90;;;3.56;100.00;-19853.25;5063356;28;20240;-65
2020/12/31 07:27:30;;;;;;;0.60;0.60;;;3.00;99.90;;;3.59;100.00;-20074.50;5061219;28;20716;-64
2020/12/31 07:30:09;;;;;;;0.80;0.77;;;3.00;99.90;;;3.69;100.00;-20297.66;5057728;28;20553;-64
2020/12/31 07:32:57;;;;;;;0.60;0.50;;;3.00;99.90;;;3.52;100.00;-20696.69;5057232;28;20645;-63
2020/12/31 07:35:43;;;;;;;0.60;0.60;;;3.00;99.90;;;3.62;100.00;-20780.72;5060342;28;20238;-64
2020/12/31 07:38:12;;;;;;;0.60;0.60;;;3.00;99.90;;;3.69;100.00;-20782.53;5061318;28;20246;-65
2020/12/31 07:40:43;;;;;;;0.60;0.50;;;3.00;99.90;;;3.65;100.00;-20781.41;5065847;28;20672;-64
2020/12/31 07:43:15;;;;;;;0.63;0.60;;;2.90;99.90;;;3.61;100.00;-20780.28;5055777;28;20237;-65
2020/12/31 07:45:47;;;;;;;0.60;0.60;;;2.90;99.90;;;3.71;100.00;-20782.94;5069601;28;20610;-64
2020/12/31 07:48:15;;;;;;;0.60;0.50;;;2.90;99.90;;;3.60;100.00;-20780.00;5057752;28;20692;-64
2020/12/31 07:50:42;;;;;;;0.60;0.50;;;2.90;99.90;;;3.52;100.00;-20777.78;5065283;28;20608;-64
2020/12/31 07:53:10;;;;;;;0.60;0.50;;;2.90;99.90;;;3.50;100.00;-20777.22;5059941;28;20229;-65
2020/12/31 07:55:37;;;;;;;0.60;0.50;;;2.90;99.90;;;3.50;100.00;-20777.22;5069734;28;20599;-64
2020/12/31 07:58:08;;;;;;;0.60;0.50;;;2.90;99.90;;;3.57;100.00;-20779.19;5068916;28;20239;-63
2020/12/31 08:00:35;;;;;;;0.60;0.60;;;2.90;99.90;;;3.43;100.00;-20775.28;5058970;28;20591;-64
2020/12/31 08:03:08;;;;;;;0.60;0.50;;;2.90;99.90;;;3.50;100.00;-20777.22;5060255;28;20190;-64
2020/12/31 08:05:36;;;;;;;0.60;0.60;;;2.90;99.90;;;3.51;100.00;-20777.66;5064537;28;20224;-64
2020/12/31 08:08:03;;;;;;;0.60;0.60;;;2.90;99.90;;;3.60;100.00;-20780.16;5057667;28;20257;-64
2020/12/31 08:10:37;;;;;;;0.60;0.50;;;2.90;99.90;;;3.48;100.00;-20776.66;5067646;28;20264;-65
2020/12/31 08:13:05;;;;;;;0.60;0.50;;;2.90;99.90;;;3.55;100.00;-20778.63;5060649;28;20191;-65
2020/12/31 08:15:32;;;;;;;0.60;0.50;;;2.90;99.90;;;3.57;100.00;-20779.31;5071974;28;20655;-65
2020/12/31 08:18:02;;;;;;;0.60;0.50;;;2.90;99.90;;;3.51;100.00;-20777.66;5057810;28;20585;-64
2020/12/31 08:20:34;;;;;;;0.60;0.55;;;3.00;99.90;;;3.62;100.00;-20780.56;5063009;28;20196;-64
2020/12/31 08:23:04;;;;;;;0.70;0.65;;;3.00;99.90;;;3.68;100.00;-20782.25;5061052;28;20186;-64
2020/12/31 08:25:37;;;;;;;0.60;0.50;;;3.00;99.90;;;3.67;100.00;-20781.97;5053650;28;20273;-65
2020/12/31 08:28:06;;;;;;;0.60;0.60;;;3.00;99.90;;;3.63;100.00;-20780.84;5059088;28;20252;-64
2020/12/31 08:30:36;;;;;;;0.60;0.60;;;3.00;99.90;;;3.61;100.00;-20780.28;5053817;28;20186;-64
2020/12/31 08:33:06;;;;;;;1.60;1.50;;;3.00;99.90;;;3.79;100.00;-20785.31;5064740;28;20258;-64
2020/12/31 08:35:39;;;;;;;0.60;0.50;;;3.10;99.90;;;3.66;100.00;-20781.69;5064650;28;20601;-63
2020/12/31 08:38:09;;;;;;;0.60;0.60;;;3.10;99.90;;;3.85;100.00;-20787.00;5061848;28;20192;-65
2020/12/31 08:40:45;;;;;;;0.60;0.60;;;3.10;99.90;;;3.83;100.00;-20786.44;5053174;28;20639;-64
2020/12/31 08:43:22;;;;;;;0.60;0.60;;;3.10;99.90;;;3.84;100.00;-20786.72;5060595;28;20238;-64
2020/12/31 08:45:51;;;;;;;0.60;0.50;;;3.20;99.90;;;4.01;100.00;-20791.16;5060188;28;20253;-64
2020/12/31 08:48:23;;;;;;;0.60;0.50;;;3.20;99.90;;;3.96;100.00;-20789.91;5064755;28;20217;-64
2020/12/31 08:51:06;;;;;;;0.60;0.52;;;3.20;99.90;;;4.07;100.00;-20792.97;5050509;28;20881;-63
2020/12/31 08:53:52;;;;;;;0.83;0.80;;;3.20;99.90;;;3.96;100.00;-20789.78;5068570;28;20190;-67
2020/12/31 08:56:21;;;;;;;0.60;0.50;;;3.30;99.90;;;3.99;100.00;-20790.63;5068316;28;20519;-66
2020/12/31 08:58:48;;;;;;;0.60;0.50;;;3.30;99.90;;;4.15;100.00;-20794.94;5054668;28;20201;-66
2020/12/31 09:01:25;;;;;;;0.60;0.50;;;3.30;99.90;;;4.29;100.00;-20798.97;5056115;28;20228;-64
2020/12/31 09:04:06;;;;;;;0.60;0.50;;;3.40;99.90;;;4.01;100.00;-20791.31;5072410;28;20294;-65
2020/12/31 09:06:35;;;;;;;0.63;0.60;;;3.30;99.90;;;4.29;100.00;-20798.97;5062548;28;20194;-64
2020/12/31 09:09:03;;;;;;;0.60;0.60;;;3.40;99.90;;;4.16;100.00;-20795.34;5067630;28;20207;-64
2020/12/31 09:11:30;;;;;;;0.60;0.57;;;3.40;99.90;;;4.13;100.00;-20794.50;5061652;28;20236;-64
2020/12/31 09:14:07;;;;;;;0.60;0.60;;;3.40;99.90;;;4.17;100.00;-20795.63;5061531;28;20189;-64
2020/12/31 09:16:34;;;;;;;0.60;0.50;;;3.40;99.90;;;4.16;100.00;-20795.34;5059629;28;20235;-64
2020/12/31 09:19:03;;;;;;;0.60;0.60;;;3.40;99.90;;;4.18;100.00;-20795.78;5069159;28;20239;-65
2020/12/31 09:21:30;;;;;;;0.60;0.60;;;3.40;99.90;;;4.26;100.00;-20798.13;5065004;28;20182;-65
2020/12/31 09:24:12;;;;;;;0.65;0.60;;;3.50;99.90;;;4.32;100.00;-20799.81;5056375;28;20247;-64
2020/12/31 09:26:39;;;;;;;0.60;0.50;;;3.50;99.90;;;4.28;100.00;-20798.69;5061551;28;20229;-64
2020/12/31 09:29:09;;;;;;;0.60;0.60;;;3.50;99.90;;;4.27;100.00;-20798.41;5055949;28;20251;-63
2020/12/31 09:31:37;;;;;;;0.60;0.60;;;3.50;99.90;;;4.34;100.00;-20800.38;5069398;28;20212;-69
2020/12/31 09:34:05;;;;;;;0.60;0.60;;;3.50;99.90;;;4.23;100.00;-20797.31;5068781;28;20212;-64
2020/12/31 09:36:31;;;;;;;0.60;0.50;;;3.60;99.90;;;4.47;100.00;-20803.72;5070944;28;20258;-63
2020/12/31 09:38:59;;;;;;;2.70;1.20;;;3.60;99.90;;;4.58;100.00;-20806.78;5066640;28;20435;-64
2020/12/31 09:41:26;;;;;;;0.60;0.50;;;3.60;99.90;;;4.45;100.00;-20803.16;5073610;28;20193;-64
2020/12/31 09:43:53;;;;;;;0.60;0.50;;;3.60;99.90;;;4.48;100.00;-20804.00;5055265;28;20613;-63
2020/12/31 09:46:21;;;;;;;1.30;1.20;;;3.60;99.90;;;4.48;100.00;-20804.00;5061488;28;20230;-64
2020/12/31 09:48:49;;;;;;;0.60;0.50;;;3.60;99.90;;;4.29;100.00;-20798.97;5065117;28;20215;-65
2020/12/31 09:51:18;;;;;;;0.60;0.50;;;3.60;99.90;;;4.32;100.00;-20799.66;5054634;28;20194;-64
2020/12/31 09:53:45;;;;;;;0.60;0.60;;;3.50;99.90;;;4.23;100.00;-20797.16;5055479;28;20520;-63
2020/12/31 09:56:12;;;;;;;0.60;0.50;;;3.50;99.90;;;4.21;100.00;-20796.75;5061343;28;20949;-63
2020/12/31 09:58:40;;;;;;;0.60;0.60;;;3.40;99.90;;;4.13;100.00;-20794.50;5062719;28;20193;-63
2020/12/31 10:01:08;;;;;;;0.60;0.50;;;3.40;99.90;;;4.09;100.00;-20793.41;5066793;28;20193;-64
2020/12/31 10:03:35;;;;;;;0.60;0.50;;;3.30;99.90;;;4.10;100.00;-20793.81;5063719;28;20264;-63
2020/12/31 10:06:05;;;;;;;0.60;0.50;;;3.20;99.90;;;3.99;100.00;-20790.63;5055519;28;20199;-63
2020/12/31 10:08:32;;;;;;;0.60;0.50;;;3.20;99.90;;;3.79;100.00;-20785.19;5060344;28;20205;-64
2020/12/31 10:11:00;;;;;;;0.60;0.50;;;3.10;99.90;;;3.83;100.00;-20786.44;5070005;28;20216;-63
2020/12/31 10:13:28;;;;;;;0.60;0.60;;;3.10;99.90;;;4.09;100.00;-20793.41;5074179;28;20251;-64
2020/12/31 10:15:59;;;;;;;0.60;0.60;;;3.00;99.90;;;3.69;100.00;-20782.53;5057942;28;20665;-65
2020/12/31 10:18:25;;;;;;;0.70;0.63;;;3.00;99.90;;;3.69;100.00;-20782.38;5073811;28;20274;-64
2020/12/31 10:20:53;;;;;;;0.60;0.50;;;2.90;99.90;;;3.84;100.00;-20786.72;5074309;28;20196;-65
2020/12/31 10:23:20;;;;;;;0.60;0.50;;;2.90;99.90;;;3.69;100.00;-20782.53;5071068;28;20653;-66
2020/12/31 10:25:47;;;;;;;0.60;0.57;;;3.00;99.90;;;3.77;100.00;-20784.63;5065569;28;20638;-64
2020/12/31 10:28:14;;;;;;;0.60;0.50;;;2.90;99.90;;;3.84;100.00;-20786.56;5060325;28;20178;-65
2020/12/31 10:30:42;;;;;;;0.60;0.50;;;3.00;99.90;;;3.78;100.00;-20785.03;5074040;28;20221;-64
2020/12/31 10:33:09;;;;;;;0.60;0.50;;;2.90;99.90;;;3.87;100.00;-20787.41;5067340;28;20232;-64